sensor_id;sensor_type;location;lat;lon;timestamp;pressure;altitude;pressure_sealevel;temperature;humidity
20043;BME280;10182;52.896;6.496;2022-11-15T00:02:45;100754.38;;;6.52;100.00
20043;BME280;10182;52.896;6.496;2022-11-15T00:07:47;100763.72;;;6.62;100.00
20043;BME280;10182;52.896;6.496;2022-11-15T00:12:50;100764.31;;;6.72;100.00
20043;BME280;10182;52.896;6.496;2022-11-15T00:17:51;100762.31;;;6.80;100.00
20043;BME280;10182;52.896;6.496;2022-11-15T00:22:53;100756.72;;;6.91;100.00
20043;BME280;10182;52.896;6.496;2022-11-15T00:27:57;100747.69;;;6.98;100.00
20043;BME280;10182;52.896;6.496;2022-11-15T00:33:01;100730.31;;;6.92;100.00
20043;BME280;10182;52.896;6.496;2022-11-15T00:38:03;100718.06;;;6.91;100.00
20043;BME280;10182;52.896;6.496;2022-11-15T00:43:06;100718.09;;;6.90;100.00
20043;BME280;10182;52.896;6.496;2022-11-15T00:48:08;100693.00;;;6.80;100.00
20043;BME280;10182;52.896;6.496;2022-11-15T00:53:11;100704.22;;;6.85;100.00
20043;BME280;10182;52.896;6.496;2022-11-15T00:58:14;100718.09;;;6.90;100.00
20043;BME280;10182;52.896;6.496;2022-11-15T01:03:15;100726.13;;;6.87;100.00
20043;BME280;10182;52.896;6.496;2022-11-15T01:08:17;100715.81;;;6.79;100.00
20043;BME280;10182;52.896;6.496;2022-11-15T01:13:20;100713.06;;;6.84;100.00
20043;BME280;10182;52.896;6.496;2022-11-15T01:18:22;100708.19;;;6.71;100.00
20043;BME280;10182;52.896;6.496;2022-11-15T01:23:23;100699.44;;;6.69;100.00
20043;BME280;10182;52.896;6.496;2022-11-15T01:28:29;100691.59;;;6.68;100.00
20043;BME280;10182;52.896;6.496;2022-11-15T01:33:34;100683.88;;;6.63;100.00
20043;BME280;10182;52.896;6.496;2022-11-15T01:38:35;100671.59;;;6.62;100.00
20043;BME280;10182;52.896;6.496;2022-11-15T01:43:40;100672.78;;;6.52;100.00
20043;BME280;10182;52.896;6.496;2022-11-15T01:48:41;100657.88;;;6.52;100.00
20043;BME280;10182;52.896;6.496;2022-11-15T01:53:46;100666.63;;;6.53;100.00
20043;BME280;10182;52.896;6.496;2022-11-15T01:58:51;100671.78;;;6.56;100.00
20043;BME280;10182;52.896;6.496;2022-11-15T02:03:58;100664.81;;;6.55;100.00
20043;BME280;10182;52.896;6.496;2022-11-15T02:09:01;100654.19;;;6.58;100.00
20043;BME280;10182;52.896;6.496;2022-11-15T02:14:05;100652.28;;;6.63;100.00
20043;BME280;10182;52.896;6.496;2022-11-15T02:19:16;100634.13;;;6.81;100.00
20043;BME280;10182;52.896;6.496;2022-11-15T02:30:13;100626.09;;;6.85;100.00
20043;BME280;10182;52.896;6.496;2022-11-15T02:35:20;100638.41;;;6.85;100.00
20043;BME280;10182;52.896;6.496;2022-11-15T02:40:33;100637.50;;;6.86;100.00
20043;BME280;10182;52.896;6.496;2022-11-15T02:45:41;100630.25;;;6.92;100.00
20043;BME280;10182;52.896;6.496;2022-11-15T02:50:47;100638.91;;;6.96;100.00
20043;BME280;10182;52.896;6.496;2022-11-15T02:55:49;100629.47;;;6.90;100.00
20043;BME280;10182;52.896;6.496;2022-11-15T03:00:59;100621.41;;;6.95;100.00
20043;BME280;10182;52.896;6.496;2022-11-15T03:06:12;100609.78;;;7.01;100.00
20043;BME280;10182;52.896;6.496;2022-11-15T03:11:17;100612.28;;;7.05;100.00
20043;BME280;10182;52.896;6.496;2022-11-15T03:16:26;100607.81;;;7.07;100.00
20043;BME280;10182;52.896;6.496;2022-11-15T03:21:30;100601.28;;;7.19;100.00
20043;BME280;10182;52.896;6.496;2022-11-15T03:26:35;100603.03;;;7.19;100.00
20043;BME280;10182;52.896;6.496;2022-11-15T03:31:42;100596.91;;;7.18;100.00
20043;BME280;10182;52.896;6.496;2022-11-15T03:36:49;100591.41;;;7.24;100.00
20043;BME280;10182;52.896;6.496;2022-11-15T03:42:00;100583.47;;;7.26;100.00
20043;BME280;10182;52.896;6.496;2022-11-15T03:47:10;100581.47;;;7.33;100.00
20043;BME280;10182;52.896;6.496;2022-11-15T03:52:17;100584.00;;;7.36;100.00
20043;BME280;10182;52.896;6.496;2022-11-15T03:57:19;100575.78;;;7.43;100.00
20043;BME280;10182;52.896;6.496;2022-11-15T04:02:22;100564.19;;;7.49;100.00
20043;BME280;10182;52.896;6.496;2022-11-15T04:07:24;100565.97;;;7.49;100.00
20043;BME280;10182;52.896;6.496;2022-11-15T04:12:26;100570.78;;;7.61;100.00
20043;BME280;10182;52.896;6.496;2022-11-15T04:17:33;100568.78;;;7.68;100.00
20043;BME280;10182;52.896;6.496;2022-11-15T04:22:35;100565.97;;;7.72;100.00
20043;BME280;10182;52.896;6.496;2022-11-15T04:27:54;100572.16;;;7.71;100.00
20043;BME280;10182;52.896;6.496;2022-11-15T04:32:57;100572.78;;;7.78;100.00
20043;BME280;10182;52.896;6.496;2022-11-15T04:37:59;100563.22;;;7.75;100.00
20043;BME280;10182;52.896;6.496;2022-11-15T04:43:02;100573.91;;;7.72;100.00
20043;BME280;10182;52.896;6.496;2022-11-15T04:48:05;100575.38;;;7.79;100.00
20043;BME280;10182;52.896;6.496;2022-11-15T04:53:07;100570.88;;;7.82;100.00
20043;BME280;10182;52.896;6.496;2022-11-15T04:58:09;100565.38;;;7.88;100.00
20043;BME280;10182;52.896;6.496;2022-11-15T05:03:12;100563.50;;;7.91;100.00
20043;BME280;10182;52.896;6.496;2022-11-15T05:08:32;100568.72;;;7.93;100.00
20043;BME280;10182;52.896;6.496;2022-11-15T05:13:34;100562.00;;;8.08;100.00
20043;BME280;10182;52.896;6.496;2022-11-15T05:18:37;100571.53;;;8.10;100.00
20043;BME280;10182;52.896;6.496;2022-11-15T05:23:41;100565.75;;;8.24;100.00
20043;BME280;10182;52.896;6.496;2022-11-15T05:28:43;100558.19;;;8.37;100.00
20043;BME280;10182;52.896;6.496;2022-11-15T05:33:46;100557.00;;;8.44;100.00
20043;BME280;10182;52.896;6.496;2022-11-15T05:38:48;100559.38;;;8.52;100.00
20043;BME280;10182;52.896;6.496;2022-11-15T05:43:50;100553.88;;;8.57;100.00
20043;BME280;10182;52.896;6.496;2022-11-15T05:48:54;100565.13;;;8.62;100.00
20043;BME280;10182;52.896;6.496;2022-11-15T05:53:58;100571.88;;;8.69;100.00
20043;BME280;10182;52.896;6.496;2022-11-15T05:59:00;100571.63;;;8.75;100.00
20043;BME280;10182;52.896;6.496;2022-11-15T06:04:03;100575.78;;;8.81;100.00
20043;BME280;10182;52.896;6.496;2022-11-15T06:09:05;100586.22;;;8.84;100.00
20043;BME280;10182;52.896;6.496;2022-11-15T06:14:06;100575.66;;;8.84;100.00
20043;BME280;10182;52.896;6.496;2022-11-15T06:19:09;100584.91;;;8.94;100.00
20043;BME280;10182;52.896;6.496;2022-11-15T06:24:11;100585.75;;;8.95;100.00
20043;BME280;10182;52.896;6.496;2022-11-15T06:29:13;100578.56;;;8.98;100.00
20043;BME280;10182;52.896;6.496;2022-11-15T06:34:16;100597.59;;;9.07;100.00
20043;BME280;10182;52.896;6.496;2022-11-15T06:39:17;100607.38;;;9.05;100.00
20043;BME280;10182;52.896;6.496;2022-11-15T06:44:19;100610.75;;;9.08;100.00
20043;BME280;10182;52.896;6.496;2022-11-15T06:49:22;100609.69;;;9.12;100.00
20043;BME280;10182;52.896;6.496;2022-11-15T06:54:24;100617.63;;;9.12;100.00
20043;BME280;10182;52.896;6.496;2022-11-15T06:59:25;100621.84;;;9.17;100.00
20043;BME280;10182;52.896;6.496;2022-11-15T07:04:28;100623.38;;;9.22;100.00
20043;BME280;10182;52.896;6.496;2022-11-15T07:09:30;100622.31;;;9.26;100.00
20043;BME280;10182;52.896;6.496;2022-11-15T07:14:32;100639.75;;;9.30;100.00
20043;BME280;10182;52.896;6.496;2022-11-15T07:19:35;100635.41;;;9.29;100.00
20043;BME280;10182;52.896;6.496;2022-11-15T07:24:36;100633.34;;;9.36;100.00
20043;BME280;10182;52.896;6.496;2022-11-15T07:29:38;100640.16;;;9.42;100.00
20043;BME280;10182;52.896;6.496;2022-11-15T07:34:41;100641.94;;;9.41;100.00
20043;BME280;10182;52.896;6.496;2022-11-15T07:39:43;100641.69;;;9.47;100.00
20043;BME280;10182;52.896;6.496;2022-11-15T07:44:45;100647.69;;;9.51;100.00
20043;BME280;10182;52.896;6.496;2022-11-15T07:49:49;100652.78;;;9.56;100.00
20043;BME280;10182;52.896;6.496;2022-11-15T07:54:51;100653.38;;;9.62;100.00
20043;BME280;10182;52.896;6.496;2022-11-15T07:59:53;100655.03;;;9.65;100.00
20043;BME280;10182;52.896;6.496;2022-11-15T08:04:56;100647.03;;;9.67;100.00
20043;BME280;10182;52.896;6.496;2022-11-15T08:09:58;100638.72;;;9.74;100.00
20043;BME280;10182;52.896;6.496;2022-11-15T08:15:01;100649.72;;;9.86;100.00
20043;BME280;10182;52.896;6.496;2022-11-15T08:20:05;100648.75;;;9.87;100.00
20043;BME280;10182;52.896;6.496;2022-11-15T08:25:07;100636.09;;;9.93;100.00
20043;BME280;10182;52.896;6.496;2022-11-15T08:30:10;100635.03;;;9.97;100.00
20043;BME280;10182;52.896;6.496;2022-11-15T08:35:14;100628.34;;;10.09;100.00
20043;BME280;10182;52.896;6.496;2022-11-15T08:40:18;100629.91;;;10.13;100.00
20043;BME280;10182;52.896;6.496;2022-11-15T08:45:20;100623.47;;;10.19;100.00
20043;BME280;10182;52.896;6.496;2022-11-15T08:50:23;100620.63;;;10.24;100.00
20043;BME280;10182;52.896;6.496;2022-11-15T08:55:25;100623.19;;;10.25;100.00
20043;BME280;10182;52.896;6.496;2022-11-15T09:00:27;100619.31;;;10.32;100.00
20043;BME280;10182;52.896;6.496;2022-11-15T09:05:30;100622.81;;;10.33;100.00
20043;BME280;10182;52.896;6.496;2022-11-15T09:10:31;100610.09;;;10.41;100.00
20043;BME280;10182;52.896;6.496;2022-11-15T09:15:33;100600.38;;;10.42;100.00
20043;BME280;10182;52.896;6.496;2022-11-15T09:20:36;100584.25;;;10.46;100.00
20043;BME280;10182;52.896;6.496;2022-11-15T09:25:38;100592.75;;;10.53;100.00
20043;BME280;10182;52.896;6.496;2022-11-15T09:30:39;100603.28;;;10.55;100.00
20043;BME280;10182;52.896;6.496;2022-11-15T09:35:42;100596.59;;;10.65;100.00
20043;BME280;10182;52.896;6.496;2022-11-15T09:40:48;100589.66;;;10.62;100.00
20043;BME280;10182;52.896;6.496;2022-11-15T09:45:58;100586.78;;;10.67;100.00
20043;BME280;10182;52.896;6.496;2022-11-15T09:51:04;100584.84;;;10.71;100.00
20043;BME280;10182;52.896;6.496;2022-11-15T09:56:14;100584.69;;;10.74;100.00
20043;BME280;10182;52.896;6.496;2022-11-15T10:01:28;100579.47;;;10.72;100.00
20043;BME280;10182;52.896;6.496;2022-11-15T10:06:40;100570.34;;;10.78;100.00
20043;BME280;10182;52.896;6.496;2022-11-15T10:11:43;100570.91;;;10.84;100.00
20043;BME280;10182;52.896;6.496;2022-11-15T10:16:57;100570.91;;;10.84;100.00
20043;BME280;10182;52.896;6.496;2022-11-15T10:22:15;100567.34;;;11.03;100.00
20043;BME280;10182;52.896;6.496;2022-11-15T10:27:19;100557.50;;;11.05;100.00
20043;BME280;10182;52.896;6.496;2022-11-15T10:32:21;100554.19;;;11.17;100.00
20043;BME280;10182;52.896;6.496;2022-11-15T10:37:29;100548.59;;;11.24;100.00
20043;BME280;10182;52.896;6.496;2022-11-15T10:42:31;100542.66;;;11.18;100.00
20043;BME280;10182;52.896;6.496;2022-11-15T10:47:33;100534.47;;;11.23;100.00
20043;BME280;10182;52.896;6.496;2022-11-15T10:52:36;100525.94;;;11.34;100.00
20043;BME280;10182;52.896;6.496;2022-11-15T10:57:49;100521.25;;;11.39;100.00
20043;BME280;10182;52.896;6.496;2022-11-15T11:02:57;100516.13;;;11.52;100.00
20043;BME280;10182;52.896;6.496;2022-11-15T11:08:03;100512.31;;;11.74;100.00
20043;BME280;10182;52.896;6.496;2022-11-15T11:13:15;100509.28;;;11.97;100.00
20043;BME280;10182;52.896;6.496;2022-11-15T11:18:25;100504.91;;;11.96;100.00
20043;BME280;10182;52.896;6.496;2022-11-15T11:23:41;100500.34;;;11.82;100.00
20043;BME280;10182;52.896;6.496;2022-11-15T11:28:53;100500.59;;;11.62;100.00
20043;BME280;10182;52.896;6.496;2022-11-15T11:34:02;100501.41;;;11.46;100.00
20043;BME280;10182;52.896;6.496;2022-11-15T11:39:19;100500.38;;;11.49;100.00
20043;BME280;10182;52.896;6.496;2022-11-15T11:44:32;100485.50;;;11.46;100.00
20043;BME280;10182;52.896;6.496;2022-11-15T11:49:41;100500.03;;;11.39;100.00
20043;BME280;10182;52.896;6.496;2022-11-15T11:55:01;100497.13;;;11.28;100.00
20043;BME280;10182;52.896;6.496;2022-11-15T12:00:11;100493.00;;;11.22;100.00
20043;BME280;10182;52.896;6.496;2022-11-15T12:05:19;100486.34;;;11.31;100.00
20043;BME280;10182;52.896;6.496;2022-11-15T12:10:29;100481.06;;;11.47;100.00
20043;BME280;10182;52.896;6.496;2022-11-15T12:15:35;100463.50;;;11.60;100.00
20043;BME280;10182;52.896;6.496;2022-11-15T12:20:47;100466.59;;;11.84;100.00
20043;BME280;10182;52.896;6.496;2022-11-15T12:25:54;100460.03;;;12.08;100.00
20043;BME280;10182;52.896;6.496;2022-11-15T12:31:01;100460.94;;;12.23;100.00
20043;BME280;10182;52.896;6.496;2022-11-15T12:36:09;100456.63;;;12.36;100.00
20043;BME280;10182;52.896;6.496;2022-11-15T12:41:14;100454.97;;;12.49;100.00
20043;BME280;10182;52.896;6.496;2022-11-15T12:46:23;100448.75;;;12.34;100.00
20043;BME280;10182;52.896;6.496;2022-11-15T12:57:28;100428.88;;;12.26;100.00
20043;BME280;10182;52.896;6.496;2022-11-15T13:02:32;100428.13;;;12.24;100.00
20043;BME280;10182;52.896;6.496;2022-11-15T13:07:55;100419.78;;;12.30;100.00
20043;BME280;10182;52.896;6.496;2022-11-15T13:13:00;100424.66;;;12.38;100.00
20043;BME280;10182;52.896;6.496;2022-11-15T13:18:31;100420.81;;;12.27;99.46
20043;BME280;10182;52.896;6.496;2022-11-15T13:23:33;100411.53;;;12.20;99.07
20043;BME280;10182;52.896;6.496;2022-11-15T13:28:41;100403.25;;;12.10;97.96
20043;BME280;10182;52.896;6.496;2022-11-15T13:33:44;100396.31;;;12.08;97.98
20043;BME280;10182;52.896;6.496;2022-11-15T13:38:54;100379.78;;;12.02;98.68
20043;BME280;10182;52.896;6.496;2022-11-15T13:43:58;100377.50;;;11.96;98.72
20043;BME280;10182;52.896;6.496;2022-11-15T13:49:02;100381.50;;;12.04;99.05
20043;BME280;10182;52.896;6.496;2022-11-15T13:54:09;100377.59;;;11.95;97.31
20043;BME280;10182;52.896;6.496;2022-11-15T13:59:21;100360.13;;;11.91;96.21
20043;BME280;10182;52.896;6.496;2022-11-15T14:04:26;100365.00;;;11.82;94.44
20043;BME280;10182;52.896;6.496;2022-11-15T14:09:33;100368.09;;;11.75;93.07
20043;BME280;10182;52.896;6.496;2022-11-15T14:14:44;100358.88;;;11.66;91.49
20043;BME280;10182;52.896;6.496;2022-11-15T14:19:46;100351.34;;;11.58;92.22
20043;BME280;10182;52.896;6.496;2022-11-15T14:25:06;100345.22;;;11.42;92.67
20043;BME280;10182;52.896;6.496;2022-11-15T14:30:14;100338.59;;;11.33;92.84
20043;BME280;10182;52.896;6.496;2022-11-15T14:35:18;100334.41;;;11.29;94.26
20043;BME280;10182;52.896;6.496;2022-11-15T14:40:21;100326.22;;;11.17;94.77
20043;BME280;10182;52.896;6.496;2022-11-15T14:45:26;100330.16;;;11.10;95.77
20043;BME280;10182;52.896;6.496;2022-11-15T14:50:28;100325.28;;;11.03;96.66
20043;BME280;10182;52.896;6.496;2022-11-15T14:55:32;100312.59;;;10.92;97.69
20043;BME280;10182;52.896;6.496;2022-11-15T15:00:39;100307.91;;;10.97;98.76
20043;BME280;10182;52.896;6.496;2022-11-15T15:05:42;100302.09;;;10.90;99.35
20043;BME280;10182;52.896;6.496;2022-11-15T15:10:45;100305.34;;;10.79;100.00
20043;BME280;10182;52.896;6.496;2022-11-15T15:15:49;100281.31;;;10.82;100.00
20043;BME280;10182;52.896;6.496;2022-11-15T15:20:55;100274.25;;;10.83;100.00
20043;BME280;10182;52.896;6.496;2022-11-15T15:26:00;100274.34;;;10.81;100.00
20043;BME280;10182;52.896;6.496;2022-11-15T15:31:04;100262.84;;;10.81;100.00
20043;BME280;10182;52.896;6.496;2022-11-15T15:36:09;100253.97;;;10.82;100.00
20043;BME280;10182;52.896;6.496;2022-11-15T15:41:12;100265.59;;;10.79;100.00
20043;BME280;10182;52.896;6.496;2022-11-15T15:46:18;100245.44;;;10.77;100.00
20043;BME280;10182;52.896;6.496;2022-11-15T15:51:20;100244.75;;;10.73;100.00
20043;BME280;10182;52.896;6.496;2022-11-15T15:56:21;100236.53;;;10.62;100.00
20043;BME280;10182;52.896;6.496;2022-11-15T16:01:24;100226.19;;;10.57;100.00
20043;BME280;10182;52.896;6.496;2022-11-15T16:06:34;100227.22;;;10.55;100.00
20043;BME280;10182;52.896;6.496;2022-11-15T16:11:36;100223.28;;;10.46;100.00
20043;BME280;10182;52.896;6.496;2022-11-15T16:16:39;100211.28;;;10.39;100.00
20043;BME280;10182;52.896;6.496;2022-11-15T16:21:41;100199.69;;;10.41;100.00
20043;BME280;10182;52.896;6.496;2022-11-15T16:26:43;100203.03;;;10.45;100.00
20043;BME280;10182;52.896;6.496;2022-11-15T16:31:46;100193.06;;;10.50;100.00
20043;BME280;10182;52.896;6.496;2022-11-15T16:36:47;100183.31;;;10.50;98.98
20043;BME280;10182;52.896;6.496;2022-11-15T16:41:49;100179.72;;;10.52;98.06
20043;BME280;10182;52.896;6.496;2022-11-15T16:46:52;100175.03;;;10.57;96.25
20043;BME280;10182;52.896;6.496;2022-11-15T16:51:54;100171.28;;;10.61;95.14
20043;BME280;10182;52.896;6.496;2022-11-15T16:56:55;100167.59;;;10.63;93.91
20043;BME280;10182;52.896;6.496;2022-11-15T17:01:59;100158.13;;;10.59;94.24
20043;BME280;10182;52.896;6.496;2022-11-15T17:07:00;100154.28;;;10.65;92.85
20043;BME280;10182;52.896;6.496;2022-11-15T17:12:02;100157.50;;;10.70;91.58
20043;BME280;10182;52.896;6.496;2022-11-15T17:17:05;100154.31;;;10.79;90.59
20043;BME280;10182;52.896;6.496;2022-11-15T17:22:07;100158.50;;;10.83;89.51
20043;BME280;10182;52.896;6.496;2022-11-15T17:27:08;100157.41;;;10.88;88.71
20043;BME280;10182;52.896;6.496;2022-11-15T17:32:11;100157.56;;;10.84;88.40
20043;BME280;10182;52.896;6.496;2022-11-15T17:37:13;100152.09;;;10.88;87.61
20043;BME280;10182;52.896;6.496;2022-11-15T17:42:15;100141.34;;;10.91;87.31
20043;BME280;10182;52.896;6.496;2022-11-15T17:47:18;100139.44;;;10.93;87.16
20043;BME280;10182;52.896;6.496;2022-11-15T17:52:19;100132.44;;;10.92;86.94
20043;BME280;10182;52.896;6.496;2022-11-15T17:57:21;100122.84;;;10.89;86.74
20043;BME280;10182;52.896;6.496;2022-11-15T18:02:24;100125.59;;;10.88;87.05
20043;BME280;10182;52.896;6.496;2022-11-15T18:07:26;100126.53;;;10.87;86.74
20043;BME280;10182;52.896;6.496;2022-11-15T18:12:28;100141.50;;;10.88;86.82
20043;BME280;10182;52.896;6.496;2022-11-15T18:17:31;100133.63;;;10.86;87.18
20043;BME280;10182;52.896;6.496;2022-11-15T18:22:32;100129.03;;;10.90;87.36
20043;BME280;10182;52.896;6.496;2022-11-15T18:27:34;100114.06;;;10.89;87.33
20043;BME280;10182;52.896;6.496;2022-11-15T18:32:38;100097.81;;;10.95;86.33
20043;BME280;10182;52.896;6.496;2022-11-15T18:37:40;100076.03;;;10.90;85.91
20043;BME280;10182;52.896;6.496;2022-11-15T18:42:42;100070.47;;;10.94;85.89
20043;BME280;10182;52.896;6.496;2022-11-15T18:47:45;100078.22;;;10.97;85.78
20043;BME280;10182;52.896;6.496;2022-11-15T18:52:47;100071.88;;;11.00;85.73
20043;BME280;10182;52.896;6.496;2022-11-15T18:57:48;100081.75;;;10.98;85.70
20043;BME280;10182;52.896;6.496;2022-11-15T19:02:53;100075.50;;;10.99;86.22
20043;BME280;10182;52.896;6.496;2022-11-15T19:07:55;100086.09;;;10.99;86.57
20043;BME280;10182;52.896;6.496;2022-11-15T19:12:57;100075.50;;;10.99;86.59
20043;BME280;10182;52.896;6.496;2022-11-15T19:18:00;100066.03;;;10.95;87.37
20043;BME280;10182;52.896;6.496;2022-11-15T19:23:02;100061.66;;;10.94;87.80
20043;BME280;10182;52.896;6.496;2022-11-15T19:28:03;100054.16;;;10.86;88.71
20043;BME280;10182;52.896;6.496;2022-11-15T19:33:06;100061.59;;;10.79;89.26
20043;BME280;10182;52.896;6.496;2022-11-15T19:38:08;100054.06;;;10.88;89.77
20043;BME280;10182;52.896;6.496;2022-11-15T19:43:10;100048.13;;;10.84;89.80
20043;BME280;10182;52.896;6.496;2022-11-15T19:48:14;100046.50;;;10.81;90.48
20043;BME280;10182;52.896;6.496;2022-11-15T19:53:16;100051.94;;;10.78;90.80
20043;BME280;10182;52.896;6.496;2022-11-15T19:58:18;100039.75;;;10.76;91.52
20043;BME280;10182;52.896;6.496;2022-11-15T20:03:21;100038.38;;;10.69;92.53
20043;BME280;10182;52.896;6.496;2022-11-15T20:08:23;100042.00;;;10.68;93.43
20043;BME280;10182;52.896;6.496;2022-11-15T20:13:25;100044.56;;;10.69;94.64
20043;BME280;10182;52.896;6.496;2022-11-15T20:18:29;100048.16;;;10.68;96.40
20043;BME280;10182;52.896;6.496;2022-11-15T20:23:31;100038.06;;;10.59;97.56
20043;BME280;10182;52.896;6.496;2022-11-15T20:28:32;100035.81;;;10.53;99.04
20043;BME280;10182;52.896;6.496;2022-11-15T20:33:37;100037.75;;;10.49;100.00
20043;BME280;10182;52.896;6.496;2022-11-15T20:38:39;100041.72;;;10.42;100.00
20043;BME280;10182;52.896;6.496;2022-11-15T20:43:41;100029.69;;;10.36;100.00
20043;BME280;10182;52.896;6.496;2022-11-15T20:48:44;100024.88;;;10.27;100.00
20043;BME280;10182;52.896;6.496;2022-11-15T20:53:46;100018.97;;;10.22;100.00
20043;BME280;10182;52.896;6.496;2022-11-15T20:58:49;100006.53;;;10.24;100.00
20043;BME280;10182;52.896;6.496;2022-11-15T21:03:53;100000.34;;;10.23;100.00
20043;BME280;10182;52.896;6.496;2022-11-15T21:08:55;100003.31;;;10.33;100.00
20043;BME280;10182;52.896;6.496;2022-11-15T21:14:14;100004.97;;;10.36;100.00
20043;BME280;10182;52.896;6.496;2022-11-15T21:19:20;100002.81;;;10.26;100.00
20043;BME280;10182;52.896;6.496;2022-11-15T21:24:22;100000.28;;;10.25;100.00
20043;BME280;10182;52.896;6.496;2022-11-15T21:29:24;99990.66;;;10.24;100.00
20043;BME280;10182;52.896;6.496;2022-11-15T21:34:27;99985.06;;;10.28;100.00
20043;BME280;10182;52.896;6.496;2022-11-15T21:39:31;99984.28;;;10.26;100.00
20043;BME280;10182;52.896;6.496;2022-11-15T21:44:33;99981.59;;;10.28;100.00
20043;BME280;10182;52.896;6.496;2022-11-15T21:49:36;99972.53;;;10.32;100.00
20043;BME280;10182;52.896;6.496;2022-11-15T21:54:37;99970.72;;;10.32;100.00
20043;BME280;10182;52.896;6.496;2022-11-15T21:59:40;99959.28;;;10.32;100.00
20043;BME280;10182;52.896;6.496;2022-11-15T22:04:57;99968.69;;;10.38;100.00
20043;BME280;10182;52.896;6.496;2022-11-15T22:09:59;99955.69;;;10.33;100.00
20043;BME280;10182;52.896;6.496;2022-11-15T22:15:00;99952.72;;;10.39;100.00
20043;BME280;10182;52.896;6.496;2022-11-15T22:20:05;99941.25;;;10.39;100.00
20043;BME280;10182;52.896;6.496;2022-11-15T22:25:07;99945.63;;;10.40;100.00
20043;BME280;10182;52.896;6.496;2022-11-15T22:30:10;99939.91;;;10.31;100.00
20043;BME280;10182;52.896;6.496;2022-11-15T22:35:13;99942.44;;;10.33;100.00
20043;BME280;10182;52.896;6.496;2022-11-15T22:40:15;99940.06;;;10.28;100.00
20043;BME280;10182;52.896;6.496;2022-11-15T22:45:17;99929.59;;;10.27;100.00
20043;BME280;10182;52.896;6.496;2022-11-15T22:50:20;99928.06;;;10.23;100.00
20043;BME280;10182;52.896;6.496;2022-11-15T22:55:22;99930.34;;;10.29;100.00
20043;BME280;10182;52.896;6.496;2022-11-15T23:00:24;99927.13;;;10.24;100.00
20043;BME280;10182;52.896;6.496;2022-11-15T23:05:27;99919.09;;;10.25;100.00
20043;BME280;10182;52.896;6.496;2022-11-15T23:10:29;99920.88;;;10.25;100.00
20043;BME280;10182;52.896;6.496;2022-11-15T23:15:49;99914.13;;;10.19;100.00
20043;BME280;10182;52.896;6.496;2022-11-15T23:21:11;99915.63;;;10.09;100.00
20043;BME280;10182;52.896;6.496;2022-11-15T23:26:13;99906.81;;;10.08;100.00
20043;BME280;10182;52.896;6.496;2022-11-15T23:31:15;99900.78;;;10.06;100.00
20043;BME280;10182;52.896;6.496;2022-11-15T23:36:35;99895.66;;;10.03;100.00
20043;BME280;10182;52.896;6.496;2022-11-15T23:41:37;99891.97;;;10.06;100.00
20043;BME280;10182;52.896;6.496;2022-11-15T23:46:39;99890.19;;;10.06;100.00
20043;BME280;10182;52.896;6.496;2022-11-15T23:51:42;99886.78;;;10.04;100.00
20043;BME280;10182;52.896;6.496;2022-11-15T23:56:43;99883.19;;;10.05;100.00
